CheckWX is a tool to help pilots better visualize weather data.  It is not intended as a substitute for an official pre-flight weather briefing.

01:43:51 UTC

DAUU TAF
Ain el Beida Airport
Ouargla, Algeria
TAF DAUU 232300Z 2400/2409 30005KT CAVOK

Feb-24@
00:00 UTC

Feb-24 @ 00:00 UTC

Feb-24@
09:00 UTC

Feb-24 @ 09:00 UTC

TAF DAUU 232300Z 2400/2409 30005KT CAVOK
Wind
  • 300° at 5 KTS
Conditions
No significant weather
Cloud Levels
  • No significant clouds